Time;durP1;ratioP1;P1;durP2;ratioP2;P2;SDS_P1;SDS_P2;PMS_P1;PMS_P2;Temp;Humidity;BMP_temperature;BMP_pressure;BME280_temperature;BME280_humidity;BME280_pressure;Samples;Min_cycle;Max_cycle;Signal;HPM_P1;HPM_P2
2023/12/10 00:00:42;;;;;;;30.50;23.20;;;;;;;;;;5071576;28;20031;-63
2023/12/10 00:03:08;;;;;;;31.57;23.03;;;;;;;;;;5074279;28;20032;-63
2023/12/10 00:05:34;;;;;;;28.37;22.27;;;;;;;;;;5073598;28;20497;-63
2023/12/10 00:08:00;;;;;;;27.77;22.87;;;;;;;;;;5074151;28;20032;-63
2023/12/10 00:10:26;;;;;;;31.07;23.00;;;;;;;;;;5073540;28;20490;-63
2023/12/10 00:12:52;;;;;;;28.10;21.37;;;;;;;;;;5072223;28;20028;-63
2023/12/10 00:15:18;;;;;;;28.70;21.93;;;;;;;;;;5073536;28;20453;-63
2023/12/10 00:17:47;;;;;;;33.33;24.43;;;;;;;;;;5073569;28;20024;-62
2023/12/10 00:20:14;;;;;;;30.30;23.33;;;;;;;;;;5071723;28;20446;-63
2023/12/10 00:22:40;;;;;;;31.93;24.07;;;;;;;;;;5071619;28;20024;-63
2023/12/10 00:25:06;;;;;;;31.57;24.20;;;;;;;;;;5064452;28;20025;-63
2023/12/10 00:27:32;;;;;;;35.43;25.10;;;;;;;;;;5059525;28;20039;-62
2023/12/10 00:29:58;;;;;;;32.47;24.23;;;;;;;;;;5073371;28;20489;-63
2023/12/10 00:32:24;;;;;;;32.97;24.27;;;;;;;;;;5073104;28;20032;-63
2023/12/10 00:34:50;;;;;;;31.27;24.43;;;;;;;;;;5073269;28;20024;-62
2023/12/10 00:37:16;;;;;;;31.33;24.97;;;;;;;;;;5052829;28;20123;-63
2023/12/10 00:39:42;;;;;;;35.87;25.93;;;;;;;;;;5073287;28;20125;-63
2023/12/10 00:42:08;;;;;;;35.60;25.10;;;;;;;;;;5073479;28;20035;-63
2023/12/10 00:44:34;;;;;;;35.60;26.33;;;;;;;;;;5071615;28;20028;-63
2023/12/10 00:47:00;;;;;;;35.63;25.37;;;;;;;;;;5072957;28;20072;-63
2023/12/10 00:49:26;;;;;;;35.73;25.87;;;;;;;;;;5072954;28;20102;-64
2023/12/10 00:51:52;;;;;;;38.63;25.90;;;;;;;;;;5072899;28;20036;-63
2023/12/10 00:54:18;;;;;;;37.50;25.30;;;;;;;;;;5071520;28;20032;-64
2023/12/10 00:56:44;;;;;;;35.13;24.60;;;;;;;;;;5072928;28;20062;-63
2023/12/10 00:59:10;;;;;;;33.27;24.13;;;;;;;;;;5072706;28;20024;-63
2023/12/10 01:01:36;;;;;;;34.87;24.77;;;;;;;;;;5073233;28;20032;-63
2023/12/10 01:04:02;;;;;;;34.33;23.87;;;;;;;;;;5072932;28;20017;-63
2023/12/10 01:06:28;;;;;;;32.60;24.70;;;;;;;;;;5072605;28;20073;-63
2023/12/10 01:08:54;;;;;;;35.63;24.80;;;;;;;;;;5072810;28;20016;-63
2023/12/10 01:11:20;;;;;;;35.00;24.97;;;;;;;;;;5072350;28;20033;-63
2023/12/10 01:13:46;;;;;;;36.57;25.33;;;;;;;;;;5072558;28;20059;-63
2023/12/10 01:16:16;;;;;;;34.77;25.40;;;;;;;;;;5072521;28;20104;-63
2023/12/10 01:18:43;;;;;;;36.20;25.47;;;;;;;;;;5072709;28;20033;-63
2023/12/10 01:21:09;;;;;;;36.23;25.90;;;;;;;;;;5072547;28;20031;-62
2023/12/10 01:23:35;;;;;;;38.47;27.27;;;;;;;;;;5071686;28;20222;-63
2023/12/10 01:26:01;;;;;;;39.13;27.67;;;;;;;;;;5072464;28;20021;-63
2023/12/10 01:28:27;;;;;;;42.17;27.87;;;;;;;;;;5072019;28;20043;-63
2023/12/10 01:30:53;;;;;;;38.20;25.93;;;;;;;;;;5070823;28;20046;-63
2023/12/10 01:33:19;;;;;;;41.73;28.40;;;;;;;;;;5072011;28;20382;-62
2023/12/10 01:35:45;;;;;;;41.50;28.43;;;;;;;;;;5071408;28;20024;-62
2023/12/10 01:38:11;;;;;;;42.93;28.73;;;;;;;;;;5072154;28;20046;-62
2023/12/10 01:40:37;;;;;;;47.83;30.87;;;;;;;;;;5071997;28;20031;-62
2023/12/10 01:43:07;;;;;;;51.70;32.03;;;;;;;;;;5070806;28;20390;-62
2023/12/10 01:45:33;;;;;;;48.90;32.27;;;;;;;;;;5071938;28;20038;-63
2023/12/10 01:48:00;;;;;;;53.00;33.50;;;;;;;;;;5072080;28;20044;-62
2023/12/10 01:50:25;;;;;;;51.60;33.37;;;;;;;;;;5057642;28;20052;-62
2023/12/10 01:52:52;;;;;;;51.17;32.97;;;;;;;;;;5072464;28;20081;-62
2023/12/10 01:55:18;;;;;;;58.50;34.53;;;;;;;;;;5070725;28;20474;-62
2023/12/10 01:57:44;;;;;;;55.87;35.07;;;;;;;;;;5066509;28;20203;-63
2023/12/10 02:00:10;;;;;;;55.73;35.83;;;;;;;;;;5063424;28;20324;-63
2023/12/10 02:02:37;;;;;;;57.87;35.17;;;;;;;;;;5057743;28;20070;-63
2023/12/10 02:05:07;;;;;;;55.90;35.57;;;;;;;;;;5062405;28;20211;-63
2023/12/10 02:07:33;;;;;;;56.50;35.33;;;;;;;;;;5067957;28;20490;-63
2023/12/10 02:09:59;;;;;;;54.60;35.30;;;;;;;;;;5071676;28;20023;-63
2023/12/10 02:12:27;;;;;;;49.80;32.67;;;;;;;;;;5063937;28;20043;-63
2023/12/10 02:14:53;;;;;;;53.73;33.40;;;;;;;;;;5068541;28;20020;-63
2023/12/10 02:17:19;;;;;;;55.87;34.40;;;;;;;;;;5069146;28;20024;-63
2023/12/10 02:19:45;;;;;;;52.07;33.57;;;;;;;;;;5071722;28;20046;-63
2023/12/10 02:22:13;;;;;;;54.33;35.53;;;;;;;;;;5071586;28;20025;-63
2023/12/10 02:24:44;;;;;;;49.20;32.10;;;;;;;;;;5071943;28;20055;-63
2023/12/10 02:27:10;;;;;;;46.60;32.00;;;;;;;;;;5071229;28;20028;-63
2023/12/10 02:29:36;;;;;;;54.27;33.87;;;;;;;;;;5069401;28;20050;-63
2023/12/10 02:32:02;;;;;;;47.50;32.57;;;;;;;;;;5071107;28;20032;-63
2023/12/10 02:34:28;;;;;;;48.33;32.87;;;;;;;;;;5070691;28;20451;-63
2023/12/10 02:36:54;;;;;;;47.57;32.43;;;;;;;;;;5069513;28;20028;-63
2023/12/10 02:39:20;;;;;;;45.80;32.33;;;;;;;;;;5070859;28;20043;-63
2023/12/10 02:41:46;;;;;;;47.47;31.80;;;;;;;;;;5070949;28;20021;-63
2023/12/10 02:44:12;;;;;;;50.83;33.63;;;;;;;;;;5069760;28;20212;-63
2023/12/10 02:46:38;;;;;;;48.03;31.70;;;;;;;;;;5063747;28;20028;-63
2023/12/10 02:49:04;;;;;;;51.70;33.77;;;;;;;;;;5065054;28;20029;-63
2023/12/10 02:51:30;;;;;;;51.23;33.90;;;;;;;;;;5071866;28;20032;-64
2023/12/10 02:53:56;;;;;;;47.33;32.53;;;;;;;;;;5074570;28;20367;-64
2023/12/10 02:56:22;;;;;;;49.93;32.70;;;;;;;;;;5074295;28;20032;-63
2023/12/10 02:58:48;;;;;;;46.70;31.43;;;;;;;;;;5073894;28;20376;-63
2023/12/10 03:01:14;;;;;;;48.23;31.70;;;;;;;;;;5074478;28;20090;-63
2023/12/10 03:03:40;;;;;;;46.63;31.27;;;;;;;;;;5072979;28;20419;-63
2023/12/10 03:06:07;;;;;;;44.90;32.37;;;;;;;;;;5060218;28;20033;-63
2023/12/10 03:08:33;;;;;;;48.23;32.53;;;;;;;;;;5072619;28;20052;-63
2023/12/10 03:10:59;;;;;;;51.57;33.33;;;;;;;;;;5072492;28;20052;-63
2023/12/10 03:13:25;;;;;;;50.80;32.73;;;;;;;;;;5073989;28;20020;-63
2023/12/10 03:15:51;;;;;;;49.47;33.03;;;;;;;;;;5074281;28;20035;-63
2023/12/10 03:18:17;;;;;;;46.53;30.63;;;;;;;;;;5074742;28;20441;-63
2023/12/10 03:20:43;;;;;;;49.70;33.37;;;;;;;;;;5074660;28;20013;-63
2023/12/10 03:23:09;;;;;;;44.70;31.13;;;;;;;;;;5074683;28;20028;-63
2023/12/10 03:25:35;;;;;;;51.33;33.27;;;;;;;;;;5073271;28;20484;-63
2023/12/10 03:28:01;;;;;;;46.07;31.50;;;;;;;;;;5074540;28;20037;-63
2023/12/10 03:30:27;;;;;;;45.57;30.73;;;;;;;;;;5074578;28;20020;-63
2023/12/10 03:32:53;;;;;;;45.07;30.03;;;;;;;;;;5074528;28;20024;-63
2023/12/10 03:35:19;;;;;;;43.63;31.10;;;;;;;;;;5074728;28;20480;-63
2023/12/10 03:37:45;;;;;;;47.00;30.67;;;;;;;;;;5074473;28;20032;-63
2023/12/10 03:40:11;;;;;;;49.13;32.77;;;;;;;;;;5065441;28;20035;-63
2023/12/10 03:42:37;;;;;;;51.47;32.93;;;;;;;;;;5069655;28;20020;-63
2023/12/10 03:45:03;;;;;;;51.23;33.97;;;;;;;;;;5074627;28;20062;-62
2023/12/10 03:47:29;;;;;;;52.03;33.27;;;;;;;;;;5074320;28;20072;-64
2023/12/10 03:49:55;;;;;;;49.77;32.37;;;;;;;;;;5074183;28;20025;-63
2023/12/10 03:52:21;;;;;;;50.33;32.87;;;;;;;;;;5073980;28;20189;-63
2023/12/10 03:54:47;;;;;;;51.27;32.47;;;;;;;;;;5072713;28;20063;-63
2023/12/10 03:57:13;;;;;;;53.37;33.47;;;;;;;;;;5073695;28;20111;-63
2023/12/10 03:59:39;;;;;;;56.37;33.30;;;;;;;;;;5073633;28;20021;-63
2023/12/10 04:02:05;;;;;;;55.10;34.43;;;;;;;;;;5074079;28;20025;-63
2023/12/10 04:04:31;;;;;;;54.87;35.13;;;;;;;;;;5074258;28;20031;-63
2023/12/10 04:06:58;;;;;;;54.60;33.07;;;;;;;;;;5074163;28;20459;-62
2023/12/10 04:09:24;;;;;;;54.53;33.57;;;;;;;;;;5073906;28;20028;-63
2023/12/10 04:11:50;;;;;;;55.30;33.37;;;;;;;;;;5073633;28;20037;-63
2023/12/10 04:14:16;;;;;;;49.47;30.50;;;;;;;;;;5073796;28;20024;-63
2023/12/10 04:16:47;;;;;;;55.33;32.17;;;;;;;;;;5073609;28;20090;-63
2023/12/10 04:19:13;;;;;;;55.60;33.10;;;;;;;;;;5073667;28;20025;-62
2023/12/10 04:21:39;;;;;;;51.20;32.17;;;;;;;;;;5073595;28;20027;-63
2023/12/10 04:24:05;;;;;;;51.90;32.47;;;;;;;;;;5072199;28;20012;-63
2023/12/10 04:26:31;;;;;;;46.47;30.97;;;;;;;;;;5073832;28;20036;-62
2023/12/10 04:28:57;;;;;;;48.43;30.43;;;;;;;;;;5073372;28;20021;-62
2023/12/10 04:31:23;;;;;;;50.37;31.53;;;;;;;;;;5072216;28;20040;-63
2023/12/10 04:33:50;;;;;;;50.60;32.37;;;;;;;;;;5064545;28;20051;-63
2023/12/10 04:36:16;;;;;;;50.07;31.20;;;;;;;;;;5061441;28;20020;-63
2023/12/10 04:38:42;;;;;;;44.97;29.47;;;;;;;;;;5072256;28;20032;-63
2023/12/10 04:41:08;;;;;;;49.47;30.73;;;;;;;;;;5073235;28;20100;-63
2023/12/10 04:43:34;;;;;;;44.20;30.27;;;;;;;;;;5073284;28;20117;-63
2023/12/10 04:46:00;;;;;;;50.53;30.03;;;;;;;;;;5071697;28;20060;-63
2023/12/10 04:48:26;;;;;;;44.23;30.27;;;;;;;;;;5073096;28;20045;-63
2023/12/10 05:00:03;;;;;;;60.37;36.70;;;;;;;;;;5059147;28;20024;-63
2023/12/10 05:02:30;;;;;;;65.50;37.03;;;;;;;;;;5072256;28;20036;-62
2023/12/10 05:04:56;;;;;;;57.93;34.60;;;;;;;;;;5072693;28;20028;-63
2023/12/10 05:07:22;;;;;;;63.10;36.27;;;;;;;;;;5072707;28;20036;-63
2023/12/10 05:09:48;;;;;;;55.03;35.17;;;;;;;;;;5072753;28;20020;-63
2023/12/10 05:12:14;;;;;;;57.47;33.00;;;;;;;;;;5072749;28;20432;-63
2023/12/10 05:14:40;;;;;;;45.03;29.90;;;;;;;;;;5072415;28;20029;-63
2023/12/10 05:17:06;;;;;;;53.70;31.70;;;;;;;;;;5072763;28;20020;-62
2023/12/10 05:19:32;;;;;;;48.40;31.40;;;;;;;;;;5072667;28;20390;-63
2023/12/10 05:21:58;;;;;;;49.77;32.20;;;;;;;;;;5072392;28;20035;-62
2023/12/10 05:24:24;;;;;;;45.83;31.03;;;;;;;;;;5064849;28;20017;-63
2023/12/10 05:26:50;;;;;;;47.43;29.47;;;;;;;;;;5066139;28;20035;-63
2023/12/10 05:29:16;;;;;;;42.23;28.13;;;;;;;;;;5072245;28;20122;-63
2023/12/10 05:31:42;;;;;;;46.93;30.33;;;;;;;;;;5070886;28;20127;-62
2023/12/10 05:34:08;;;;;;;45.93;29.97;;;;;;;;;;5070870;28;20431;-63
2023/12/10 05:36:34;;;;;;;47.97;29.83;;;;;;;;;;5070920;28;20025;-62
2023/12/10 05:39:00;;;;;;;46.67;29.23;;;;;;;;;;5072276;28;20194;-63
2023/12/10 05:41:26;;;;;;;46.50;28.43;;;;;;;;;;5071242;28;20028;-63
2023/12/10 05:43:52;;;;;;;48.13;31.27;;;;;;;;;;5057020;28;20336;-63
2023/12/10 05:46:18;;;;;;;47.90;31.97;;;;;;;;;;5069407;28;20113;-64
2023/12/10 05:48:44;;;;;;;49.67;30.57;;;;;;;;;;5067191;28;20375;-63
2023/12/10 05:51:10;;;;;;;48.20;30.50;;;;;;;;;;5071917;28;20111;-63
2023/12/10 05:53:36;;;;;;;47.57;31.27;;;;;;;;;;5070663;28;20016;-63
2023/12/10 05:56:02;;;;;;;49.30;31.27;;;;;;;;;;5072104;28;20031;-63
2023/12/10 05:58:28;;;;;;;48.17;31.00;;;;;;;;;;5072073;28;20391;-63
2023/12/10 06:00:55;;;;;;;54.07;32.77;;;;;;;;;;5072233;28;20025;-63
2023/12/10 06:03:21;;;;;;;48.20;30.43;;;;;;;;;;5057864;28;20108;-63
2023/12/10 06:05:47;;;;;;;52.23;31.60;;;;;;;;;;5071877;28;20046;-63
2023/12/10 06:08:13;;;;;;;46.10;30.70;;;;;;;;;;5071776;28;20480;-63
2023/12/10 06:10:39;;;;;;;53.03;33.20;;;;;;;;;;5071787;28;20033;-63
2023/12/10 06:13:05;;;;;;;51.03;32.63;;;;;;;;;;5071760;28;20036;-63
2023/12/10 06:15:31;;;;;;;53.73;33.73;;;;;;;;;;5061286;28;20485;-63
2023/12/10 06:17:57;;;;;;;51.67;32.33;;;;;;;;;;5058524;28;20021;-63
2023/12/10 06:20:23;;;;;;;52.73;33.67;;;;;;;;;;5071999;28;20035;-63
2023/12/10 06:22:49;;;;;;;55.87;34.47;;;;;;;;;;5063985;28;20029;-63
2023/12/10 06:25:15;;;;;;;51.43;33.03;;;;;;;;;;5073127;28;20488;-63
2023/12/10 06:27:41;;;;;;;56.37;34.73;;;;;;;;;;5074446;28;20024;-63
2023/12/10 06:30:08;;;;;;;50.60;32.77;;;;;;;;;;5075569;28;20478;-63
2023/12/10 06:32:34;;;;;;;52.87;31.50;;;;;;;;;;5067875;28;20493;-63
2023/12/10 06:35:01;;;;;;;52.10;33.03;;;;;;;;;;5056990;28;20025;-63
2023/12/10 06:37:27;;;;;;;57.03;34.23;;;;;;;;;;5068698;28;20037;-63
2023/12/10 06:39:54;;;;;;;52.50;33.27;;;;;;;;;;5069282;28;20025;-63
2023/12/10 06:42:20;;;;;;;50.77;32.67;;;;;;;;;;5072294;28;20025;-64
2023/12/10 06:44:46;;;;;;;53.13;32.67;;;;;;;;;;5072042;28;20017;-63
2023/12/10 06:47:12;;;;;;;54.27;33.97;;;;;;;;;;5073699;28;20041;-63
2023/12/10 06:49:38;;;;;;;54.33;32.97;;;;;;;;;;5075170;28;20013;-63
2023/12/10 06:52:04;;;;;;;52.33;32.40;;;;;;;;;;5063157;28;20481;-64
2023/12/10 06:54:30;;;;;;;50.67;30.57;;;;;;;;;;5073498;28;20066;-64
2023/12/10 06:56:56;;;;;;;55.33;31.50;;;;;;;;;;5075204;28;20023;-64
2023/12/10 06:59:22;;;;;;;49.03;31.67;;;;;;;;;;5075116;28;20021;-64
2023/12/10 07:01:48;;;;;;;51.80;30.67;;;;;;;;;;5074778;28;20028;-64
2023/12/10 07:04:14;;;;;;;51.37;33.03;;;;;;;;;;5075389;28;20031;-64
2023/12/10 07:06:41;;;;;;;52.20;32.93;;;;;;;;;;5075072;28;20466;-64
2023/12/10 07:09:07;;;;;;;49.13;31.20;;;;;;;;;;5075016;28;20016;-64
2023/12/10 07:11:33;;;;;;;53.10;32.37;;;;;;;;;;5075005;28;20032;-63
2023/12/10 07:14:02;;;;;;;50.03;32.87;;;;;;;;;;5074957;28;20047;-63
2023/12/10 07:16:28;;;;;;;55.70;32.00;;;;;;;;;;5074827;28;20025;-63
2023/12/10 07:18:54;;;;;;;53.30;33.47;;;;;;;;;;5074760;28;20466;-63
2023/12/10 07:21:20;;;;;;;51.40;32.30;;;;;;;;;;5067498;28;20028;-63
2023/12/10 07:23:46;;;;;;;51.43;32.97;;;;;;;;;;5083382;28;20066;-63
2023/12/10 07:26:12;;;;;;;56.47;34.53;;;;;;;;;;5074627;28;20051;-63
2023/12/10 07:28:38;;;;;;;56.23;33.87;;;;;;;;;;5074530;28;20060;-63
2023/12/10 07:31:04;;;;;;;53.67;31.47;;;;;;;;;;5071180;28;20492;-63
2023/12/10 07:33:30;;;;;;;48.57;31.67;;;;;;;;;;5062601;28;20107;-63
2023/12/10 07:35:57;;;;;;;53.33;34.00;;;;;;;;;;5074497;28;20055;-63
2023/12/10 07:38:23;;;;;;;51.47;33.27;;;;;;;;;;5067041;28;20077;-63
2023/12/10 07:50:14;;;;;;;51.57;31.43;;;;;;;;;;5056752;28;20055;-64
2023/12/10 07:52:39;;;;;;;48.97;29.77;;;;;;;;;;5074168;28;20040;-63
2023/12/10 07:55:06;;;;;;;52.87;31.53;;;;;;;;;;5074147;28;20047;-63
2023/12/10 07:57:32;;;;;;;47.10;29.20;;;;;;;;;;5074179;28;20105;-64
2023/12/10 07:59:58;;;;;;;51.63;31.47;;;;;;;;;;5060220;28;20033;-63
2023/12/10 08:02:24;;;;;;;47.80;31.80;;;;;;;;;;5074261;28;20032;-63
2023/12/10 08:04:50;;;;;;;48.37;30.50;;;;;;;;;;5074077;28;20021;-63
2023/12/10 08:07:16;;;;;;;50.37;32.60;;;;;;;;;;5068020;28;20348;-63
2023/12/10 08:09:42;;;;;;;56.40;32.00;;;;;;;;;;5066446;28;20103;-63
2023/12/10 08:12:08;;;;;;;53.70;32.13;;;;;;;;;;5059986;28;20032;-64
2023/12/10 08:14:35;;;;;;;50.60;32.10;;;;;;;;;;5073806;28;20474;-63
2023/12/10 08:17:01;;;;;;;54.30;32.27;;;;;;;;;;5074016;28;20035;-63
2023/12/10 08:19:27;;;;;;;58.37;33.17;;;;;;;;;;5074086;28;20104;-63
2023/12/10 08:21:53;;;;;;;57.30;33.73;;;;;;;;;;5073642;28;20542;-63
2023/12/10 08:24:19;;;;;;;56.50;34.30;;;;;;;;;;5072407;28;20028;-63
2023/12/10 08:26:45;;;;;;;52.13;32.47;;;;;;;;;;5072241;28;20079;-64
2023/12/10 08:29:11;;;;;;;55.00;34.23;;;;;;;;;;5073409;28;20031;-63
2023/12/10 08:31:37;;;;;;;53.20;32.33;;;;;;;;;;5062927;28;20041;-63
2023/12/10 08:34:03;;;;;;;52.43;32.43;;;;;;;;;;5067487;28;20021;-63
2023/12/10 08:36:29;;;;;;;55.73;32.67;;;;;;;;;;5060007;28;20063;-64
2023/12/10 08:38:55;;;;;;;56.33;32.40;;;;;;;;;;5070477;28;20028;-64
2023/12/10 08:41:21;;;;;;;51.43;33.13;;;;;;;;;;5073511;28;20039;-64
2023/12/10 08:43:47;;;;;;;52.80;30.87;;;;;;;;;;5070512;28;20378;-64
2023/12/10 08:46:13;;;;;;;49.70;31.33;;;;;;;;;;5062221;28;20085;-63
2023/12/10 08:48:42;;;;;;;48.67;32.00;;;;;;;;;;5073297;28;20051;-63
2023/12/10 08:51:08;;;;;;;46.73;30.27;;;;;;;;;;5071872;28;20500;-63
2023/12/10 08:53:34;;;;;;;44.80;29.50;;;;;;;;;;5072286;28;20112;-64
2023/12/10 08:56:00;;;;;;;48.30;31.30;;;;;;;;;;5070959;28;20032;-63
2023/12/10 08:58:27;;;;;;;43.67;30.13;;;;;;;;;;5071345;28;20028;-64
2023/12/10 09:00:53;;;;;;;43.97;29.33;;;;;;;;;;5071300;28;20039;-64
2023/12/10 09:03:19;;;;;;;42.93;28.63;;;;;;;;;;5059150;28;20033;-63
2023/12/10 09:05:45;;;;;;;45.47;28.97;;;;;;;;;;5070246;28;20070;-63
2023/12/10 09:08:11;;;;;;;51.60;30.43;;;;;;;;;;5072643;28;20024;-63
2023/12/10 09:10:37;;;;;;;48.17;30.77;;;;;;;;;;5072503;28;20130;-64
2023/12/10 09:13:03;;;;;;;42.47;28.03;;;;;;;;;;5072554;28;20040;-64
2023/12/10 09:15:29;;;;;;;43.73;28.10;;;;;;;;;;5072458;28;20508;-63
2023/12/10 09:17:55;;;;;;;41.03;26.73;;;;;;;;;;5072666;28;20060;-63
2023/12/10 09:20:21;;;;;;;43.30;28.00;;;;;;;;;;5069627;28;20131;-63
2023/12/10 09:22:47;;;;;;;40.93;27.23;;;;;;;;;;5072371;28;20526;-63
2023/12/10 09:25:13;;;;;;;46.83;27.97;;;;;;;;;;5057573;28;20176;-64
2023/12/10 09:27:39;;;;;;;41.17;27.33;;;;;;;;;;5072481;28;20021;-63
2023/12/10 09:30:05;;;;;;;41.00;25.77;;;;;;;;;;5072951;28;20028;-64
2023/12/10 09:32:31;;;;;;;36.10;23.37;;;;;;;;;;5068566;28;20421;-63
2023/12/10 09:34:58;;;;;;;38.97;24.50;;;;;;;;;;5062389;28;20021;-64
2023/12/10 09:37:24;;;;;;;39.23;23.90;;;;;;;;;;5072271;28;20088;-64
2023/12/10 09:39:50;;;;;;;40.43;26.37;;;;;;;;;;5060379;28;20029;-63
2023/12/10 09:42:16;;;;;;;34.53;22.60;;;;;;;;;;5072120;28;20093;-64
2023/12/10 09:44:42;;;;;;;36.57;25.17;;;;;;;;;;5072219;28;20485;-63
2023/12/10 09:47:09;;;;;;;36.83;25.47;;;;;;;;;;5072066;28;20048;-64
2023/12/10 09:49:37;;;;;;;38.03;26.30;;;;;;;;;;5071795;28;20123;-63
2023/12/10 09:52:04;;;;;;;40.83;27.23;;;;;;;;;;5072011;28;20138;-64
2023/12/10 09:54:30;;;;;;;42.50;26.83;;;;;;;;;;5071865;28;20025;-64
2023/12/10 09:56:56;;;;;;;39.20;26.17;;;;;;;;;;5071266;28;20028;-64
2023/12/10 09:59:22;;;;;;;39.33;26.83;;;;;;;;;;5070516;28;20500;-64
2023/12/10 10:01:52;;;;;;;43.07;28.80;;;;;;;;;;5069285;28;20031;-64
2023/12/10 10:04:18;;;;;;;37.83;26.27;;;;;;;;;;5064759;28;20025;-64
2023/12/10 10:06:44;;;;;;;36.60;24.13;;;;;;;;;;5071581;28;20128;-64
2023/12/10 10:09:10;;;;;;;33.67;24.10;;;;;;;;;;5072109;28;20370;-63
2023/12/10 10:11:37;;;;;;;36.03;24.87;;;;;;;;;;5071967;28;20029;-64
2023/12/10 10:14:03;;;;;;;34.63;25.00;;;;;;;;;;5070518;28;20032;-64
2023/12/10 10:16:31;;;;;;;34.90;26.00;;;;;;;;;;5071642;28;20061;-63
2023/12/10 10:18:58;;;;;;;36.97;25.27;;;;;;;;;;5071854;28;20047;-64
2023/12/10 10:21:24;;;;;;;37.53;26.13;;;;;;;;;;5071890;28;20051;-64
2023/12/10 10:23:51;;;;;;;47.10;31.30;;;;;;;;;;5071757;28;20028;-64
2023/12/10 10:26:18;;;;;;;52.27;32.17;;;;;;;;;;5071772;28;20016;-64
2023/12/10 10:28:46;;;;;;;48.30;31.07;;;;;;;;;;5071238;28;20103;-63
2023/12/10 10:31:12;;;;;;;51.07;32.00;;;;;;;;;;5071391;28;20033;-64
2023/12/10 10:33:38;;;;;;;49.50;33.67;;;;;;;;;;5071293;28;20085;-64
2023/12/10 10:36:05;;;;;;;49.50;33.03;;;;;;;;;;5071901;28;20154;-64
2023/12/10 10:38:32;;;;;;;50.67;33.57;;;;;;;;;;5070836;28;20136;-64
2023/12/10 10:41:01;;;;;;;48.83;32.53;;;;;;;;;;5058575;28;20027;-64
2023/12/10 10:43:27;;;;;;;45.33;31.70;;;;;;;;;;5058348;28;20111;-64
2023/12/10 10:45:54;;;;;;;46.57;31.23;;;;;;;;;;5070568;28;20025;-64
2023/12/10 10:48:25;;;;;;;43.27;30.30;;;;;;;;;;5071757;28;20035;-64
2023/12/10 10:50:51;;;;;;;40.83;29.13;;;;;;;;;;5067158;28;20049;-63
2023/12/10 10:53:18;;;;;;;39.90;29.57;;;;;;;;;;5062954;28;20442;-63
2023/12/10 10:55:46;;;;;;;40.83;28.60;;;;;;;;;;5067191;28;20017;-63
2023/12/10 10:58:27;;;;;;;43.43;29.80;;;;;;;;;;5068001;28;20048;-63
2023/12/10 11:00:53;;;;;;;40.50;28.43;;;;;;;;;;5070748;28;20017;-64
2023/12/10 11:03:19;;;;;;;42.43;28.93;;;;;;;;;;5071252;28;20020;-64
2023/12/10 11:05:45;;;;;;;39.47;29.10;;;;;;;;;;5060288;28;20028;-64
2023/12/10 11:08:12;;;;;;;41.17;29.97;;;;;;;;;;5068584;28;20390;-64
2023/12/10 11:10:45;;;;;;;42.33;29.73;;;;;;;;;;5073662;28;20028;-63
2023/12/10 11:13:13;;;;;;;41.87;28.40;;;;;;;;;;5074793;28;20474;-62
2023/12/10 11:15:39;;;;;;;39.97;29.70;;;;;;;;;;5060721;28;20369;-63
2023/12/10 11:18:05;;;;;;;41.43;29.17;;;;;;;;;;5074765;28;20113;-63
2023/12/10 11:20:44;;;;;;;40.80;29.43;;;;;;;;;;5074688;28;20027;-64
2023/12/10 11:23:14;;;;;;;38.20;28.50;;;;;;;;;;5068067;28;20060;-63
2023/12/10 11:25:41;;;;;;;40.10;29.13;;;;;;;;;;5072125;28;20051;-63
2023/12/10 11:28:14;;;;;;;40.03;28.50;;;;;;;;;;5071088;28;20024;-64
2023/12/10 11:30:40;;;;;;;37.13;26.10;;;;;;;;;;5074414;28;20418;-63
2023/12/10 11:33:07;;;;;;;35.20;26.27;;;;;;;;;;5074591;28;20021;-64
2023/12/10 11:35:33;;;;;;;34.50;25.40;;;;;;;;;;5065148;28;20024;-64
2023/12/10 11:37:59;;;;;;;36.47;26.90;;;;;;;;;;5067198;28;20027;-63
2023/12/10 11:40:25;;;;;;;39.23;27.93;;;;;;;;;;5074398;28;20024;-63
2023/12/10 11:42:51;;;;;;;37.00;26.10;;;;;;;;;;5074733;28;20032;-64
2023/12/10 11:45:17;;;;;;;36.27;25.87;;;;;;;;;;5072956;28;20024;-64
2023/12/10 11:47:44;;;;;;;38.07;25.17;;;;;;;;;;5074225;28;20488;-64
2023/12/10 11:50:10;;;;;;;33.47;25.50;;;;;;;;;;5074047;28;20044;-64
2023/12/10 11:52:37;;;;;;;33.10;24.53;;;;;;;;;;5074284;28;20040;-64
2023/12/10 11:55:03;;;;;;;35.00;25.20;;;;;;;;;;5070541;28;20500;-64
2023/12/10 11:57:29;;;;;;;33.87;26.57;;;;;;;;;;5069308;28;20024;-64
2023/12/10 11:59:56;;;;;;;35.47;25.57;;;;;;;;;;5069729;28;20371;-64
2023/12/10 12:02:22;;;;;;;35.38;25.85;;;;;;;;;;5073839;28;20055;-63
2023/12/10 12:04:51;;;;;;;31.23;23.40;;;;;;;;;;5074048;28;20028;-64
2023/12/10 12:07:27;;;;;;;32.83;24.23;;;;;;;;;;5072006;28;20024;-64
2023/12/10 12:09:53;;;;;;;29.73;23.77;;;;;;;;;;5059888;28;20024;-64
2023/12/10 12:12:20;;;;;;;30.67;23.97;;;;;;;;;;5073885;28;20055;-64
2023/12/10 12:14:47;;;;;;;30.25;23.52;;;;;;;;;;5066352;28;20033;-64
2023/12/10 12:17:15;;;;;;;27.08;20.77;;;;;;;;;;5057351;28;20509;-65
2023/12/10 12:19:41;;;;;;;28.20;21.70;;;;;;;;;;5067119;28;20023;-64
2023/12/10 12:22:07;;;;;;;27.90;20.95;;;;;;;;;;5062808;28;20017;-64
2023/12/10 12:24:33;;;;;;;27.60;21.60;;;;;;;;;;5073812;28;20104;-64
2023/12/10 12:27:00;;;;;;;27.92;20.23;;;;;;;;;;5073826;28;20355;-65
2023/12/10 12:29:26;;;;;;;26.95;19.20;;;;;;;;;;5073968;28;20438;-64
2023/12/10 12:31:52;;;;;;;25.38;18.70;;;;;;;;;;5073434;28;20122;-65
2023/12/10 12:34:18;;;;;;;29.13;18.73;;;;;;;;;;5070707;28;20063;-65
2023/12/10 12:36:45;;;;;;;26.27;19.33;;;;;;;;;;5071993;28;20048;-64
2023/12/10 12:39:11;;;;;;;26.05;18.75;;;;;;;;;;5073728;28;20047;-65
2023/12/10 12:41:37;;;;;;;19.83;15.80;;;;;;;;;;5073211;28;20052;-64
2023/12/10 12:44:03;;;;;;;22.10;17.02;;;;;;;;;;5073450;28;20028;-63
2023/12/10 12:46:29;;;;;;;21.27;17.02;;;;;;;;;;5073498;28;20028;-63
2023/12/10 12:48:55;;;;;;;22.48;17.15;;;;;;;;;;5072516;28;20048;-63
2023/12/10 12:51:21;;;;;;;19.15;15.23;;;;;;;;;;5073351;28;20036;-63
2023/12/10 12:53:47;;;;;;;17.95;14.23;;;;;;;;;;5073027;28;20126;-63
2023/12/10 12:56:13;;;;;;;13.30;11.90;;;;;;;;;;5073108;28;20105;-64
2023/12/10 12:58:39;;;;;;;16.70;13.45;;;;;;;;;;5072839;28;20031;-64
2023/12/10 13:01:05;;;;;;;14.05;11.70;;;;;;;;;;5073029;28;20488;-64
2023/12/10 13:03:31;;;;;;;12.27;10.55;;;;;;;;;;5072656;28;20027;-63
2023/12/10 13:05:57;;;;;;;11.55;10.27;;;;;;;;;;5072391;28;20012;-63
2023/12/10 13:08:23;;;;;;;14.20;11.77;;;;;;;;;;5072848;28;20353;-63
2023/12/10 13:10:49;;;;;;;13.32;11.63;;;;;;;;;;5072755;28;20025;-63
2023/12/10 13:13:16;;;;;;;17.17;14.20;;;;;;;;;;5072800;28;20027;-64
2023/12/10 13:15:42;;;;;;;20.02;15.25;;;;;;;;;;5069782;28;20073;-64
2023/12/10 13:18:08;;;;;;;19.40;15.75;;;;;;;;;;5060330;28;20029;-64
2023/12/10 13:20:34;;;;;;;22.15;17.33;;;;;;;;;;5067916;28;20055;-64
2023/12/10 13:23:00;;;;;;;18.88;16.33;;;;;;;;;;5072814;28;20036;-64
2023/12/10 13:25:26;;;;;;;19.67;16.50;;;;;;;;;;5072680;28;20470;-64
2023/12/10 13:27:52;;;;;;;18.67;15.40;;;;;;;;;;5065721;28;20035;-63
2023/12/10 13:30:18;;;;;;;18.27;14.73;;;;;;;;;;5070554;28;20470;-64
2023/12/10 13:32:44;;;;;;;19.58;16.10;;;;;;;;;;5070796;28;20040;-64
2023/12/10 13:35:10;;;;;;;18.23;15.10;;;;;;;;;;5057613;28;20021;-64
2023/12/10 13:37:36;;;;;;;17.30;15.07;;;;;;;;;;5064314;28;20123;-63
2023/12/10 13:40:03;;;;;;;15.82;13.95;;;;;;;;;;5071994;28;20025;-63
2023/12/10 13:42:29;;;;;;;17.63;13.77;;;;;;;;;;5071000;28;20060;-63
2023/12/10 13:44:55;;;;;;;14.50;12.93;;;;;;;;;;5071867;28;20097;-63
2023/12/10 13:47:22;;;;;;;14.52;12.43;;;;;;;;;;5069713;28;20121;-65
2023/12/10 13:49:48;;;;;;;14.10;12.57;;;;;;;;;;5057270;28;20045;-63
2023/12/10 13:52:14;;;;;;;14.38;12.18;;;;;;;;;;5071770;28;20037;-63
2023/12/10 13:54:40;;;;;;;18.92;14.25;;;;;;;;;;5072125;28;20085;-64
2023/12/10 13:57:06;;;;;;;13.43;12.02;;;;;;;;;;5066277;28;20028;-63
2023/12/10 13:59:32;;;;;;;13.95;12.55;;;;;;;;;;5071819;28;20020;-64
2023/12/10 14:01:58;;;;;;;14.85;12.80;;;;;;;;;;5056526;28;20060;-63
2023/12/10 14:04:24;;;;;;;11.27;10.10;;;;;;;;;;5063471;28;20025;-63
2023/12/10 14:06:50;;;;;;;12.38;10.45;;;;;;;;;;5051779;28;20087;-64
2023/12/10 14:09:16;;;;;;;11.95;9.50;;;;;;;;;;5062324;28;20044;-63
2023/12/10 14:11:46;;;;;;;11.07;9.48;;;;;;;;;;5066503;28;20040;-63
2023/12/10 14:14:12;;;;;;;10.02;8.88;;;;;;;;;;5072169;28;20081;-63
2023/12/10 14:16:38;;;;;;;10.63;9.52;;;;;;;;;;5059658;28;20040;-64
2023/12/10 14:19:04;;;;;;;10.68;8.88;;;;;;;;;;5051913;28;20378;-63
2023/12/10 14:21:30;;;;;;;9.75;8.77;;;;;;;;;;5065756;28;20491;-64
2023/12/10 14:23:56;;;;;;;9.60;8.15;;;;;;;;;;5057745;28;20021;-63
2023/12/10 14:26:22;;;;;;;13.48;9.38;;;;;;;;;;5062470;28;20386;-64
2023/12/10 14:28:48;;;;;;;10.15;9.02;;;;;;;;;;5069653;28;20031;-64
2023/12/10 14:31:14;;;;;;;12.35;10.18;;;;;;;;;;5061954;28;20041;-64